Time;durP1;ratioP1;P1;durP2;ratioP2;P2;SDS_P1;SDS_P2;PMS_P1;PMS_P2;Temp;Humidity;BMP_temperature;BMP_pressure;BME280_temperature;BME280_humidity;BME280_pressure;Samples;Min_cycle;Max_cycle;Signal;HPM_P1;HPM_P2
2023/08/10 00:00:16;;;;;;;3.57;3.10;;;;;;;;;;5045565;28;20207;-74
2023/08/10 00:02:43;;;;;;;6.47;3.47;;;;;;;;;;5053994;28;20180;-74
2023/08/10 00:05:12;;;;;;;8.93;3.37;;;;;;;;;;5053524;28;20179;-76
2023/08/10 00:07:38;;;;;;;8.07;3.40;;;;;;;;;;5073549;28;20271;-76
2023/08/10 00:10:05;;;;;;;11.17;3.67;;;;;;;;;;5017034;28;20283;-76
2023/08/10 00:12:34;;;;;;;5.23;3.30;;;;;;;;;;5033284;28;20195;-76
2023/08/10 00:15:00;;;;;;;5.53;3.10;;;;;;;;;;5019553;28;20194;-76
2023/08/10 00:17:26;;;;;;;10.67;3.07;;;;;;;;;;5050138;28;20198;-76
2023/08/10 00:19:52;;;;;;;7.20;3.17;;;;;;;;;;5038078;28;20212;-76
2023/08/10 00:22:18;;;;;;;6.63;3.60;;;;;;;;;;5067831;28;20175;-74
2023/08/10 00:24:44;;;;;;;7.43;3.13;;;;;;;;;;5022777;28;21055;-74
2023/08/10 00:27:10;;;;;;;5.20;2.93;;;;;;;;;;5048994;28;20190;-74
2023/08/10 00:29:36;;;;;;;7.00;2.80;;;;;;;;;;5037326;28;20206;-74
2023/08/10 00:32:02;;;;;;;6.90;3.50;;;;;;;;;;5026792;28;20199;-74
2023/08/10 00:34:28;;;;;;;8.37;2.97;;;;;;;;;;5032780;28;20309;-74
2023/08/10 00:36:54;;;;;;;7.17;3.13;;;;;;;;;;5028552;28;20200;-74
2023/08/10 00:39:20;;;;;;;8.07;3.23;;;;;;;;;;5055710;28;20218;-81
2023/08/10 00:41:46;;;;;;;7.87;3.43;;;;;;;;;;5073342;28;20187;-81
2023/08/10 00:44:13;;;;;;;5.90;3.00;;;;;;;;;;5073610;28;20171;-81
2023/08/10 00:46:39;;;;;;;10.87;3.30;;;;;;;;;;5059059;28;20179;-80
2023/08/10 00:49:05;;;;;;;6.30;3.00;;;;;;;;;;5056130;28;20321;-81
2023/08/10 00:51:31;;;;;;;8.20;2.83;;;;;;;;;;5036606;28;20340;-80
2023/08/10 00:53:57;;;;;;;9.60;3.10;;;;;;;;;;5047544;28;20194;-80
2023/08/10 00:56:24;;;;;;;9.47;3.40;;;;;;;;;;5018474;28;20184;-80
2023/08/10 00:58:50;;;;;;;5.20;3.10;;;;;;;;;;5047619;28;20188;-80
2023/08/10 01:01:16;;;;;;;8.23;3.20;;;;;;;;;;5049143;28;20176;-80
2023/08/10 01:03:42;;;;;;;8.00;3.60;;;;;;;;;;5019895;28;20242;-81
2023/08/10 01:06:11;;;;;;;6.97;3.93;;;;;;;;;;5050000;28;20187;-80
2023/08/10 01:08:53;;;;;;;7.67;3.23;;;;;;;;;;5031456;28;20227;-80
2023/08/10 01:11:25;;;;;;;6.13;3.20;;;;;;;;;;5070164;28;20187;-80
2023/08/10 01:13:51;;;;;;;5.77;3.20;;;;;;;;;;5040562;28;20282;-80
2023/08/10 01:16:17;;;;;;;6.43;3.43;;;;;;;;;;5039556;28;20247;-80
2023/08/10 01:18:43;;;;;;;5.07;3.27;;;;;;;;;;5057077;28;20195;-81
2023/08/10 01:21:30;;;;;;;10.43;3.70;;;;;;;;;;5043935;28;20171;-80
2023/08/10 01:23:56;;;;;;;8.07;3.50;;;;;;;;;;5040713;28;20275;-80
2023/08/10 01:26:26;;;;;;;9.63;3.50;;;;;;;;;;5069724;28;20186;-80
2023/08/10 01:28:53;;;;;;;9.23;3.03;;;;;;;;;;5058761;28;20187;-76
2023/08/10 01:31:19;;;;;;;7.73;3.40;;;;;;;;;;5057531;28;20176;-76
2023/08/10 01:33:45;;;;;;;7.23;3.20;;;;;;;;;;5037185;28;20278;-76
2023/08/10 01:36:11;;;;;;;7.30;3.27;;;;;;;;;;5034166;28;20196;-76
2023/08/10 01:38:37;;;;;;;8.87;3.10;;;;;;;;;;5022290;28;20176;-76
2023/08/10 01:41:03;;;;;;;8.33;3.50;;;;;;;;;;5028519;28;20180;-76
2023/08/10 01:43:29;;;;;;;8.97;3.50;;;;;;;;;;5076016;28;20191;-76
2023/08/10 01:45:56;;;;;;;8.40;3.27;;;;;;;;;;5058386;28;20211;-76
2023/08/10 01:48:27;;;;;;;7.10;3.07;;;;;;;;;;5058505;28;20180;-76
2023/08/10 01:50:54;;;;;;;8.17;3.97;;;;;;;;;;5056602;28;20179;-80
2023/08/10 01:53:26;;;;;;;9.60;3.50;;;;;;;;;;5044504;28;20182;-80
2023/08/10 01:55:52;;;;;;;7.70;3.13;;;;;;;;;;5058150;28;20260;-80
2023/08/10 01:58:19;;;;;;;7.77;3.50;;;;;;;;;;5045370;28;20184;-80
2023/08/10 02:00:45;;;;;;;6.13;3.23;;;;;;;;;;5054505;28;20220;-80
2023/08/10 02:03:11;;;;;;;7.50;3.03;;;;;;;;;;5047140;28;20187;-80
2023/08/10 02:05:37;;;;;;;8.63;3.40;;;;;;;;;;5057301;28;20180;-80
2023/08/10 02:08:04;;;;;;;8.07;3.03;;;;;;;;;;5038866;28;20227;-80
2023/08/10 02:10:30;;;;;;;5.53;3.33;;;;;;;;;;5054872;28;20212;-80
2023/08/10 02:12:56;;;;;;;5.37;3.10;;;;;;;;;;5075289;28;20239;-80
2023/08/10 02:15:22;;;;;;;5.40;3.30;;;;;;;;;;5073515;28;20215;-80
2023/08/10 02:17:48;;;;;;;9.20;3.40;;;;;;;;;;5040812;28;20238;-80
2023/08/10 02:20:14;;;;;;;5.37;3.23;;;;;;;;;;5021776;28;20216;-80
2023/08/10 02:22:41;;;;;;;6.17;3.40;;;;;;;;;;5052465;28;20183;-80
2023/08/10 02:25:08;;;;;;;7.90;3.50;;;;;;;;;;5058158;28;20199;-80
2023/08/10 02:27:34;;;;;;;8.67;3.30;;;;;;;;;;5057695;28;20179;-80
2023/08/10 02:30:00;;;;;;;8.23;3.13;;;;;;;;;;5041470;28;20190;-80
2023/08/10 02:32:27;;;;;;;8.13;3.30;;;;;;;;;;5028352;28;20201;-80
2023/08/10 02:34:53;;;;;;;9.47;3.37;;;;;;;;;;5035347;28;20283;-81
2023/08/10 02:37:19;;;;;;;4.90;3.03;;;;;;;;;;5021579;28;20188;-80
2023/08/10 02:39:45;;;;;;;8.73;3.23;;;;;;;;;;5055817;28;20222;-80
2023/08/10 02:42:11;;;;;;;8.40;3.47;;;;;;;;;;5045494;28;20183;-80
2023/08/10 02:44:37;;;;;;;9.23;3.10;;;;;;;;;;5042715;28;20183;-76
2023/08/10 02:47:03;;;;;;;6.40;3.43;;;;;;;;;;5057483;28;20239;-76
2023/08/10 02:49:29;;;;;;;5.93;3.17;;;;;;;;;;5044673;28;20271;-76
2023/08/10 02:51:55;;;;;;;8.23;3.53;;;;;;;;;;5038239;28;20194;-75
2023/08/10 02:54:22;;;;;;;9.73;3.33;;;;;;;;;;5048688;28;20189;-75
2023/08/10 02:56:48;;;;;;;7.63;3.10;;;;;;;;;;5073549;28;20179;-75
2023/08/10 02:59:14;;;;;;;6.13;3.00;;;;;;;;;;5056400;28;20215;-74
2023/08/10 03:01:40;;;;;;;5.73;2.83;;;;;;;;;;5056920;28;20232;-74
2023/08/10 03:04:06;;;;;;;7.63;3.00;;;;;;;;;;5053489;28;20190;-74
2023/08/10 03:06:33;;;;;;;5.33;2.73;;;;;;;;;;5069490;28;20176;-74
2023/08/10 03:08:59;;;;;;;8.80;3.03;;;;;;;;;;5020284;28;20188;-73
2023/08/10 03:11:25;;;;;;;4.17;2.80;;;;;;;;;;5038807;28;20183;-73
2023/08/10 03:13:51;;;;;;;5.67;3.10;;;;;;;;;;5032960;28;20192;-73
2023/08/10 03:16:17;;;;;;;8.37;2.87;;;;;;;;;;5023291;28;20234;-73
2023/08/10 03:18:44;;;;;;;7.77;2.70;;;;;;;;;;5051633;28;20198;-73
2023/08/10 03:21:10;;;;;;;5.93;3.00;;;;;;;;;;5043222;28;20172;-73
2023/08/10 03:23:36;;;;;;;6.57;2.53;;;;;;;;;;5041172;28;20243;-73
2023/08/10 03:26:02;;;;;;;6.40;2.80;;;;;;;;;;5031960;28;20183;-75
2023/08/10 03:28:28;;;;;;;8.37;2.93;;;;;;;;;;5040112;28;20190;-75
2023/08/10 03:30:54;;;;;;;7.97;3.07;;;;;;;;;;5030613;28;20184;-75
2023/08/10 03:33:20;;;;;;;8.23;3.10;;;;;;;;;;5021434;28;20194;-75
2023/08/10 03:35:46;;;;;;;7.97;3.13;;;;;;;;;;5059279;28;20199;-76
2023/08/10 03:38:12;;;;;;;6.47;3.17;;;;;;;;;;5055479;28;20175;-76
2023/08/10 03:40:38;;;;;;;5.67;2.83;;;;;;;;;;5055423;28;20259;-76
2023/08/10 03:43:04;;;;;;;8.30;3.20;;;;;;;;;;5036496;28;20180;-75
2023/08/10 03:45:30;;;;;;;5.33;2.90;;;;;;;;;;5054302;28;20183;-75
2023/08/10 03:47:56;;;;;;;7.17;2.70;;;;;;;;;;5062129;28;20241;-75
2023/08/10 03:50:22;;;;;;;4.50;3.03;;;;;;;;;;5039658;28;20180;-75
2023/08/10 03:52:48;;;;;;;6.00;2.63;;;;;;;;;;5055752;28;20237;-75
2023/08/10 03:55:15;;;;;;;5.37;2.80;;;;;;;;;;5026452;28;20241;-75
2023/08/10 03:57:41;;;;;;;6.33;3.40;;;;;;;;;;5051879;28;20184;-75
2023/08/10 04:00:08;;;;;;;4.57;3.30;;;;;;;;;;5053920;28;20257;-75
2023/08/10 04:02:34;;;;;;;5.57;3.20;;;;;;;;;;5021134;28;20247;-75
2023/08/10 04:05:05;;;;;;;8.23;3.63;;;;;;;;;;5037409;28;20183;-75
2023/08/10 04:07:33;;;;;;;6.20;3.00;;;;;;;;;;5020244;28;20230;-76
2023/08/10 04:09:59;;;;;;;4.97;3.00;;;;;;;;;;5039106;28;20180;-75
2023/08/10 04:12:25;;;;;;;6.83;3.10;;;;;;;;;;5030700;28;20213;-75
2023/08/10 04:14:51;;;;;;;9.07;3.20;;;;;;;;;;5073391;28;20179;-75
2023/08/10 04:17:18;;;;;;;7.70;3.10;;;;;;;;;;5039544;28;20190;-76
2023/08/10 04:19:44;;;;;;;7.27;3.13;;;;;;;;;;5055397;28;20218;-76
2023/08/10 04:22:10;;;;;;;5.97;3.13;;;;;;;;;;5030634;28;20238;-76
2023/08/10 04:24:36;;;;;;;8.15;3.50;;;;;;;;;;5020547;28;20451;-76
2023/08/10 04:27:02;;;;;;;4.57;3.60;;;;;;;;;;5026185;28;20178;-76
2023/08/10 04:29:29;;;;;;;7.53;3.13;;;;;;;;;;5015134;28;20188;-76
2023/08/10 04:31:55;;;;;;;6.80;3.47;;;;;;;;;;5010479;28;20173;-75
2023/08/10 04:34:21;;;;;;;8.00;3.43;;;;;;;;;;5043011;28;20172;-75
2023/08/10 04:36:47;;;;;;;6.20;3.43;;;;;;;;;;5043530;28;20294;-75
2023/08/10 04:39:13;;;;;;;5.30;3.10;;;;;;;;;;5041451;28;20202;-75
2023/08/10 04:41:39;;;;;;;5.90;3.10;;;;;;;;;;5024875;28;20169;-75
2023/08/10 04:44:05;;;;;;;5.97;3.37;;;;;;;;;;5042161;28;20172;-75
2023/08/10 04:46:31;;;;;;;7.83;3.20;;;;;;;;;;5010453;28;20263;-75
2023/08/10 04:48:57;;;;;;;3.93;2.87;;;;;;;;;;5041143;28;20264;-75
2023/08/10 04:51:23;;;;;;;4.97;3.40;;;;;;;;;;5041359;28;20176;-75
2023/08/10 04:53:49;;;;;;;6.80;3.37;;;;;;;;;;5043768;28;20247;-75
2023/08/10 04:56:15;;;;;;;4.37;3.10;;;;;;;;;;5024145;28;20177;-75
2023/08/10 04:58:41;;;;;;;5.23;3.23;;;;;;;;;;5031279;28;20180;-75
2023/08/10 05:01:09;;;;;;;8.10;3.40;;;;;;;;;;5028403;28;20263;-76
2023/08/10 05:03:35;;;;;;;9.60;3.63;;;;;;;;;;5044815;28;20195;-76
2023/08/10 05:06:02;;;;;;;9.10;3.80;;;;;;;;;;5028746;28;20170;-76
2023/08/10 05:08:28;;;;;;;5.00;3.37;;;;;;;;;;5060168;28;20207;-76
2023/08/10 05:10:54;;;;;;;7.57;3.63;;;;;;;;;;5023975;28;20196;-73
2023/08/10 05:13:20;;;;;;;9.77;4.90;;;;;;;;;;5059042;28;20186;-74
2023/08/10 05:15:46;;;;;;;10.37;5.20;;;;;;;;;;5009353;28;20205;-74
2023/08/10 05:18:12;;;;;;;9.53;5.43;;;;;;;;;;5057470;28;20218;-74
2023/08/10 05:20:38;;;;;;;9.67;5.37;;;;;;;;;;5008769;28;20204;-74
2023/08/10 05:23:04;;;;;;;7.83;5.20;;;;;;;;;;5029747;28;20184;-76
2023/08/10 05:25:30;;;;;;;9.33;5.50;;;;;;;;;;5013242;28;20239;-74
2023/08/10 05:27:56;;;;;;;10.67;4.93;;;;;;;;;;5042347;28;20177;-74
2023/08/10 05:30:22;;;;;;;6.90;4.97;;;;;;;;;;5031313;28;20256;-74
2023/08/10 05:32:48;;;;;;;8.33;4.97;;;;;;;;;;5015995;28;20180;-73
2023/08/10 05:35:15;;;;;;;8.13;5.10;;;;;;;;;;5030007;28;20190;-73
2023/08/10 05:37:41;;;;;;;9.27;5.03;;;;;;;;;;5045423;28;20187;-74
2023/08/10 05:40:11;;;;;;;7.77;4.33;;;;;;;;;;5070209;28;20227;-74
2023/08/10 05:42:37;;;;;;;6.03;4.13;;;;;;;;;;5043123;28;20182;-73
2023/08/10 05:45:06;;;;;;;5.53;4.27;;;;;;;;;;5027206;28;20214;-74
2023/08/10 05:47:32;;;;;;;11.13;4.67;;;;;;;;;;5043050;28;20178;-73
2023/08/10 05:49:58;;;;;;;7.67;4.80;;;;;;;;;;5068774;28;20187;-73
2023/08/10 05:52:24;;;;;;;6.53;4.40;;;;;;;;;;5049970;28;20192;-76
2023/08/10 05:54:50;;;;;;;9.27;4.60;;;;;;;;;;5060997;28;20176;-76
2023/08/10 05:57:16;;;;;;;8.43;4.83;;;;;;;;;;5036352;28;20188;-76
2023/08/10 05:59:42;;;;;;;8.70;4.60;;;;;;;;;;5030094;28;20207;-75
2023/08/10 06:02:08;;;;;;;8.97;4.70;;;;;;;;;;5019241;28;20180;-75
2023/08/10 06:04:34;;;;;;;6.17;4.10;;;;;;;;;;5045204;28;20176;-75
2023/08/10 06:07:00;;;;;;;9.73;4.90;;;;;;;;;;5038016;28;20183;-75
2023/08/10 06:09:26;;;;;;;10.47;5.37;;;;;;;;;;5038786;28;20223;-76
2023/08/10 06:11:52;;;;;;;7.80;5.30;;;;;;;;;;5022359;28;20246;-81
2023/08/10 06:14:19;;;;;;;9.97;5.77;;;;;;;;;;5038808;28;20180;-81
2023/08/10 06:16:45;;;;;;;10.50;5.80;;;;;;;;;;5038476;28;20191;-80
2023/08/10 06:19:11;;;;;;;8.57;4.93;;;;;;;;;;5022413;28;20220;-81
2023/08/10 06:21:37;;;;;;;7.93;5.27;;;;;;;;;;5038760;28;20187;-81
2023/08/10 06:24:06;;;;;;;9.07;5.43;;;;;;;;;;5023896;28;20202;-76
2023/08/10 06:26:33;;;;;;;7.47;5.37;;;;;;;;;;5056129;28;20172;-76
2023/08/10 06:29:00;;;;;;;9.07;5.27;;;;;;;;;;5070846;28;20175;-80
2023/08/10 06:31:26;;;;;;;10.33;5.33;;;;;;;;;;5071771;28;20206;-81
2023/08/10 06:33:52;;;;;;;9.17;5.60;;;;;;;;;;5055645;28;20179;-81
2023/08/10 06:36:18;;;;;;;11.53;5.27;;;;;;;;;;5040905;28;20195;-81
2023/08/10 06:38:44;;;;;;;6.53;5.00;;;;;;;;;;5027181;28;20180;-82
2023/08/10 06:41:10;;;;;;;8.50;5.10;;;;;;;;;;5038115;28;20216;-80
2023/08/10 06:43:36;;;;;;;8.57;5.03;;;;;;;;;;5037269;28;20184;-81
2023/08/10 06:46:02;;;;;;;7.70;5.33;;;;;;;;;;5055838;28;20178;-77
2023/08/10 06:48:28;;;;;;;7.90;5.27;;;;;;;;;;5038341;28;20179;-76
2023/08/10 06:50:54;;;;;;;11.73;5.73;;;;;;;;;;5039252;28;20180;-77
2023/08/10 06:53:21;;;;;;;8.30;5.50;;;;;;;;;;5050210;28;20183;-77
2023/08/10 06:55:50;;;;;;;8.30;5.47;;;;;;;;;;5049824;28;20195;-77
2023/08/10 06:58:16;;;;;;;7.57;6.10;;;;;;;;;;5043873;28;20179;-77
2023/08/10 07:00:42;;;;;;;9.97;5.50;;;;;;;;;;5020372;28;20227;-76
2023/08/10 07:03:08;;;;;;;9.00;5.90;;;;;;;;;;5018385;28;20177;-82
2023/08/10 07:05:38;;;;;;;10.77;5.53;;;;;;;;;;5044995;28;20175;-81
2023/08/10 07:08:04;;;;;;;11.13;5.90;;;;;;;;;;5038156;28;20251;-82
2023/08/10 07:10:31;;;;;;;9.90;6.00;;;;;;;;;;5021418;28;20183;-82
2023/08/10 07:12:57;;;;;;;9.60;5.57;;;;;;;;;;5060040;28;20167;-82
2023/08/10 07:15:23;;;;;;;11.87;6.07;;;;;;;;;;5030078;28;20212;-82
2023/08/10 07:17:49;;;;;;;10.37;5.50;;;;;;;;;;5043438;28;20175;-76
2023/08/10 07:20:18;;;;;;;6.73;5.17;;;;;;;;;;5056701;28;20203;-77
2023/08/10 07:22:45;;;;;;;10.40;5.70;;;;;;;;;;5072894;28;20250;-76
2023/08/10 07:25:12;;;;;;;8.83;5.30;;;;;;;;;;5030238;28;20177;-76
2023/08/10 07:27:38;;;;;;;7.57;5.17;;;;;;;;;;5057301;28;20163;-77
2023/08/10 07:30:04;;;;;;;9.57;4.83;;;;;;;;;;5057415;28;20179;-74
2023/08/10 07:32:31;;;;;;;10.93;5.20;;;;;;;;;;5005853;28;20184;-75
2023/08/10 07:34:57;;;;;;;7.23;4.53;;;;;;;;;;5039743;28;20184;-77
2023/08/10 07:37:23;;;;;;;6.60;4.60;;;;;;;;;;5044513;28;20187;-77
2023/08/10 07:39:49;;;;;;;7.13;4.43;;;;;;;;;;5027807;28;20214;-77
2023/08/10 07:42:15;;;;;;;8.80;4.70;;;;;;;;;;5061234;28;20187;-76
2023/08/10 07:44:41;;;;;;;9.60;4.20;;;;;;;;;;5060173;28;20179;-75
2023/08/10 07:47:07;;;;;;;9.23;4.10;;;;;;;;;;5030689;28;20190;-74
2023/08/10 07:49:33;;;;;;;6.73;3.50;;;;;;;;;;5025498;28;20179;-75
2023/08/10 07:51:59;;;;;;;8.33;4.00;;;;;;;;;;5029433;28;20188;-74
2023/08/10 07:54:26;;;;;;;6.43;3.47;;;;;;;;;;5052688;28;20207;-75
2023/08/10 07:56:52;;;;;;;7.13;3.17;;;;;;;;;;5038913;28;20175;-75
2023/08/10 07:59:18;;;;;;;10.50;3.80;;;;;;;;;;5056499;28;20203;-75
2023/08/10 08:01:45;;;;;;;7.90;4.20;;;;;;;;;;5039294;28;20407;-75
2023/08/10 08:04:12;;;;;;;6.30;3.33;;;;;;;;;;5040708;28;20465;-75
2023/08/10 08:06:38;;;;;;;5.30;3.13;;;;;;;;;;5049832;28;20433;-75
2023/08/10 08:09:06;;;;;;;6.05;2.70;;;;;;;;;;5060297;28;20419;-76
2023/08/10 08:11:34;;;;;;;4.18;2.90;;;;;;;;;;5053973;28;20427;-76
2023/08/10 08:14:00;;;;;;;4.53;2.60;;;;;;;;;;5055393;28;20585;-77
2023/08/10 08:16:26;;;;;;;4.72;2.30;;;;;;;;;;5052875;28;20411;-76
2023/08/10 08:18:55;;;;;;;4.13;2.20;;;;;;;;;;5071097;28;20410;-76
2023/08/10 08:21:22;;;;;;;4.20;1.85;;;;;;;;;;5053679;28;20410;-76
2023/08/10 08:23:49;;;;;;;3.70;2.20;;;;;;;;;;5041374;28;20406;-76
2023/08/10 08:26:16;;;;;;;8.13;2.60;;;;;;;;;;5049613;28;20187;-75
2023/08/10 08:28:42;;;;;;;3.00;2.10;;;;;;;;;;5024678;28;20211;-75
2023/08/10 08:31:09;;;;;;;4.50;2.20;;;;;;;;;;5040346;28;20412;-75
2023/08/10 08:33:35;;;;;;;4.00;2.27;;;;;;;;;;5035006;28;20176;-77
2023/08/10 08:36:02;;;;;;;5.10;2.43;;;;;;;;;;5064094;28;20174;-76
2023/08/10 08:38:29;;;;;;;4.13;2.00;;;;;;;;;;5066141;28;20412;-76
2023/08/10 08:40:55;;;;;;;6.00;2.00;;;;;;;;;;5045439;28;20199;-76
2023/08/10 08:43:22;;;;;;;2.67;1.90;;;;;;;;;;5058257;28;20172;-77
2023/08/10 08:45:48;;;;;;;4.33;1.80;;;;;;;;;;5037040;28;20187;-77
2023/08/10 08:48:15;;;;;;;5.55;2.05;;;;;;;;;;5042399;28;20417;-77
2023/08/10 08:50:43;;;;;;;4.53;2.00;;;;;;;;;;5027450;28;20188;-77
2023/08/10 08:53:10;;;;;;;4.07;1.80;;;;;;;;;;5057234;28;20177;-82
2023/08/10 08:55:37;;;;;;;2.43;1.70;;;;;;;;;;5040240;28;20261;-81
2023/08/10 08:58:04;;;;;;;4.67;1.77;;;;;;;;;;5054927;28;20189;-77
2023/08/10 09:00:31;;;;;;;4.23;1.87;;;;;;;;;;5034550;28;20211;-77
2023/08/10 09:02:58;;;;;;;6.30;1.90;;;;;;;;;;5053280;28;20210;-77
2023/08/10 09:05:24;;;;;;;2.80;1.80;;;;;;;;;;5053425;28;20190;-77
2023/08/10 09:07:53;;;;;;;3.47;1.80;;;;;;;;;;5054538;28;20220;-77
2023/08/10 09:10:20;;;;;;;4.47;1.70;;;;;;;;;;5037103;28;20191;-82
2023/08/10 09:12:47;;;;;;;3.00;1.93;;;;;;;;;;5057411;28;20180;-82
2023/08/10 09:15:14;;;;;;;4.15;1.80;;;;;;;;;;5039874;28;20404;-77
2023/08/10 09:17:43;;;;;;;3.55;1.88;;;;;;;;;;5038492;28;20434;-78
2023/08/10 09:20:09;;;;;;;4.40;1.85;;;;;;;;;;5038885;28;20505;-78
2023/08/10 09:22:35;;;;;;;3.00;1.80;;;;;;;;;;5056656;28;20443;-78
2023/08/10 09:25:01;;;;;;;3.92;1.90;;;;;;;;;;5057320;28;20176;-78
2023/08/10 09:27:28;;;;;;;5.47;1.90;;;;;;;;;;5039948;28;20168;-76
2023/08/10 09:29:58;;;;;;;4.68;1.90;;;;;;;;;;5057504;28;20172;-77
2023/08/10 09:32:24;;;;;;;5.90;1.98;;;;;;;;;;5057392;28;20255;-81
2023/08/10 09:34:51;;;;;;;4.47;1.85;;;;;;;;;;5057325;28;20179;-82
2023/08/10 09:37:17;;;;;;;2.58;1.70;;;;;;;;;;5023364;28;20284;-82
2023/08/10 09:39:43;;;;;;;2.63;1.70;;;;;;;;;;5057549;28;20208;-82
2023/08/10 09:42:09;;;;;;;3.53;2.13;;;;;;;;;;5056259;28;20412;-81
2023/08/10 09:44:46;;;;;;;3.58;1.90;;;;;;;;;;5039661;28;20179;-82
2023/08/10 09:47:12;;;;;;;5.78;1.83;;;;;;;;;;5039039;28;20183;-82
2023/08/10 09:50:01;;;;;;;3.95;2.08;;;;;;;;;;5037825;28;20176;-77
2023/08/10 09:52:28;;;;;;;3.35;2.20;;;;;;;;;;5037278;28;20424;-76
2023/08/10 09:54:55;;;;;;;4.53;1.98;;;;;;;;;;5037752;28;20187;-76
2023/08/10 09:57:21;;;;;;;3.05;2.00;;;;;;;;;;5055713;28;20419;-76
2023/08/10 09:59:47;;;;;;;3.60;2.00;;;;;;;;;;5038977;28;20333;-76
2023/08/10 10:02:14;;;;;;;4.95;2.15;;;;;;;;;;5022507;28;20735;-76
2023/08/10 10:04:40;;;;;;;4.57;2.20;;;;;;;;;;5038169;28;20511;-77
2023/08/10 10:07:07;;;;;;;4.53;2.10;;;;;;;;;;5034436;28;20417;-77
2023/08/10 10:09:34;;;;;;;3.05;2.00;;;;;;;;;;5038300;28;20428;-77
2023/08/10 10:12:01;;;;;;;4.07;2.00;;;;;;;;;;5018461;28;20469;-77
2023/08/10 10:14:27;;;;;;;3.97;2.17;;;;;;;;;;5017910;28;20414;-77
2023/08/10 10:16:54;;;;;;;3.03;2.10;;;;;;;;;;5018570;28;20409;-77
2023/08/10 10:19:20;;;;;;;4.05;2.00;;;;;;;;;;5035534;28;20421;-77
2023/08/10 10:21:47;;;;;;;5.25;1.98;;;;;;;;;;5019225;28;20182;-76
2023/08/10 10:24:14;;;;;;;4.20;2.08;;;;;;;;;;5019127;28;20503;-76
2023/08/10 10:26:57;;;;;;;3.38;1.90;;;;;;;;;;5018731;28;20495;-77
2023/08/10 10:29:23;;;;;;;4.70;2.20;;;;;;;;;;5035575;28;20401;-76
2023/08/10 10:31:49;;;;;;;3.33;2.10;;;;;;;;;;5034154;28;20423;-76
2023/08/10 10:34:20;;;;;;;4.30;2.40;;;;;;;;;;5055338;28;20435;-76
2023/08/10 10:36:46;;;;;;;4.80;2.30;;;;;;;;;;5037526;28;20501;-76
2023/08/10 10:39:20;;;;;;;4.90;2.40;;;;;;;;;;5021086;28;20415;-76
2023/08/10 10:41:48;;;;;;;4.20;2.00;;;;;;;;;;5037994;28;20176;-77
2023/08/10 10:44:14;;;;;;;3.95;2.50;;;;;;;;;;5037833;28;20172;-77
2023/08/10 10:46:41;;;;;;;4.10;2.45;;;;;;;;;;5037529;28;20499;-76
2023/08/10 10:49:07;;;;;;;4.70;2.47;;;;;;;;;;5039220;28;20176;-76
2023/08/10 10:51:33;;;;;;;4.40;2.70;;;;;;;;;;5055219;28;20408;-76
2023/08/10 10:53:59;;;;;;;5.43;3.38;;;;;;;;;;5055071;28;20400;-76
2023/08/10 10:56:26;;;;;;;3.67;3.10;;;;;;;;;;5037545;28;20423;-77
2023/08/10 10:58:52;;;;;;;4.18;2.63;;;;;;;;;;5021445;28;20176;-77
2023/08/10 11:01:22;;;;;;;4.78;2.30;;;;;;;;;;5037750;28;20214;-77
2023/08/10 11:03:55;;;;;;;5.05;2.60;;;;;;;;;;5038066;28;20186;-77
2023/08/10 11:06:21;;;;;;;5.45;2.60;;;;;;;;;;5055291;28;20406;-77
2023/08/10 11:08:51;;;;;;;5.95;2.78;;;;;;;;;;5006087;28;20267;-77
2023/08/10 11:11:17;;;;;;;3.35;2.50;;;;;;;;;;5017846;28;20187;-77
2023/08/10 11:13:44;;;;;;;4.95;2.63;;;;;;;;;;5035392;28;20288;-77
2023/08/10 11:16:10;;;;;;;5.55;3.13;;;;;;;;;;5002055;28;20423;-77
2023/08/10 11:18:41;;;;;;;6.13;2.80;;;;;;;;;;5000922;28;20452;-76
2023/08/10 11:21:08;;;;;;;5.37;2.80;;;;;;;;;;5017150;28;20433;-76
2023/08/10 11:23:34;;;;;;;4.93;2.42;;;;;;;;;;5040631;22;20224;-78
2023/08/10 11:26:02;;;;;;;5.22;2.20;;;;;;;;;;5054231;28;20438;-78
2023/08/10 11:28:28;;;;;;;3.10;2.22;;;;;;;;;;5020463;28;20420;-77
2023/08/10 11:31:01;;;;;;;4.20;2.20;;;;;;;;;;5020114;28;20404;-77
2023/08/10 11:33:27;;;;;;;5.07;2.35;;;;;;;;;;5053799;28;20410;-77
2023/08/10 11:35:53;;;;;;;5.65;2.20;;;;;;;;;;5054640;28;20211;-77
2023/08/10 11:38:19;;;;;;;3.67;3.08;;;;;;;;;;5036690;28;20176;-77
2023/08/10 11:40:45;;;;;;;4.00;2.42;;;;;;;;;;5054383;28;20206;-77
2023/08/10 11:43:14;;;;;;;3.38;2.55;;;;;;;;;;5036721;28;20246;-78
2023/08/10 11:45:41;;;;;;;4.25;2.60;;;;;;;;;;5036759;28;20229;-78
2023/08/10 11:48:11;;;;;;;6.28;2.75;;;;;;;;;;5054341;28;20186;-78
2023/08/10 11:50:40;;;;;;;4.78;3.00;;;;;;;;;;5020719;28;20208;-78
2023/08/10 11:53:12;;;;;;;3.95;2.80;;;;;;;;;;5036519;28;20357;-78
2023/08/10 11:55:46;;;;;;;4.82;2.75;;;;;;;;;;5036411;28;20183;-78
2023/08/10 11:58:13;;;;;;;3.55;2.60;;;;;;;;;;5036686;28;20182;-78
2023/08/10 12:00:41;;;;;;;6.22;3.08;;;;;;;;;;5014597;28;20216;-78
2023/08/10 12:03:11;;;;;;;4.18;3.00;;;;;;;;;;5034603;28;20165;-78
2023/08/10 12:05:37;;;;;;;5.88;2.50;;;;;;;;;;5016625;28;20181;-78
2023/08/10 12:08:05;;;;;;;2.83;2.30;;;;;;;;;;5034142;28;20169;-78
2023/08/10 12:10:36;;;;;;;4.32;2.30;;;;;;;;;;5016461;28;20184;-78
2023/08/10 12:13:02;;;;;;;3.42;2.53;;;;;;;;;;5000281;28;20424;-78
2023/08/10 12:15:31;;;;;;;3.70;2.70;;;;;;;;;;5000264;28;20184;-78
2023/08/10 12:17:57;;;;;;;3.42;2.80;;;;;;;;;;5019907;28;20184;-78
2023/08/10 12:20:23;;;;;;;5.40;2.97;;;;;;;;;;5032724;28;20212;-78
2023/08/10 12:22:49;;;;;;;4.47;2.83;;;;;;;;;;5033559;28;20433;-78
2023/08/10 12:25:15;;;;;;;3.67;2.40;;;;;;;;;;5032844;28;20204;-78
2023/08/10 12:27:41;;;;;;;5.53;2.90;;;;;;;;;;5032945;28;20173;-78
2023/08/10 12:30:09;;;;;;;4.30;3.35;;;;;;;;;;5032803;28;20187;-78
2023/08/10 12:32:35;;;;;;;3.50;2.92;;;;;;;;;;5032928;28;20180;-78
2023/08/10 12:35:01;;;;;;;3.78;2.60;;;;;;;;;;5028568;28;20408;-78
2023/08/10 12:37:27;;;;;;;4.72;2.90;;;;;;;;;;5016314;28;20270;-78
2023/08/10 12:39:54;;;;;;;4.27;3.10;;;;;;;;;;5015815;28;20434;-78
2023/08/10 12:42:20;;;;;;;4.13;3.17;;;;;;;;;;5036444;28;20401;-78
2023/08/10 12:44:46;;;;;;;3.55;2.25;;;;;;;;;;5020215;28;20502;-78
2023/08/10 12:47:12;;;;;;;3.38;2.10;;;;;;;;;;5037752;28;20175;-78
2023/08/10 12:49:38;;;;;;;6.82;2.80;;;;;;;;;;5020304;28;20180;-78
2023/08/10 12:52:05;;;;;;;3.55;2.45;;;;;;;;;;5037300;28;20476;-82
2023/08/10 12:54:31;;;;;;;3.13;2.70;;;;;;;;;;5019656;28;20405;-82
2023/08/10 12:56:57;;;;;;;5.00;2.83;;;;;;;;;;5028932;28;20195;-83
2023/08/10 12:59:23;;;;;;;4.88;2.65;;;;;;;;;;5035958;28;20219;-81
2023/08/10 13:01:51;;;;;;;3.20;2.58;;;;;;;;;;5021931;28;20180;-82
2023/08/10 13:04:17;;;;;;;3.67;2.80;;;;;;;;;;5039481;28;20438;-82
2023/08/10 13:06:43;;;;;;;3.05;2.50;;;;;;;;;;5039285;28;20556;-83
2023/08/10 13:09:09;;;;;;;4.43;2.70;;;;;;;;;;5037973;28;20757;-77
2023/08/10 13:11:36;;;;;;;4.65;2.45;;;;;;;;;;5057315;28;20170;-77
2023/08/10 13:14:03;;;;;;;4.55;2.50;;;;;;;;;;5039714;28;20197;-77
2023/08/10 13:16:29;;;;;;;3.08;2.70;;;;;;;;;;5039412;28;20180;-77
2023/08/10 13:18:56;;;;;;;4.63;2.40;;;;;;;;;;5056553;28;20392;-77
2023/08/10 13:21:23;;;;;;;3.60;2.45;;;;;;;;;;5039212;28;20432;-77
2023/08/10 13:23:49;;;;;;;4.22;2.50;;;;;;;;;;5056357;28;20432;-77
2023/08/10 13:26:16;;;;;;;4.22;2.60;;;;;;;;;;5038782;28;20447;-76
2023/08/10 13:28:42;;;;;;;4.63;2.87;;;;;;;;;;5055760;28;20410;-76
2023/08/10 13:31:08;;;;;;;5.13;2.90;;;;;;;;;;5054496;28;20458;-77
2023/08/10 13:33:34;;;;;;;3.05;2.63;;;;;;;;;;5038812;28;20489;-76
2023/08/10 13:36:00;;;;;;;4.70;2.17;;;;;;;;;;5022060;28;20454;-76
2023/08/10 13:38:26;;;;;;;2.70;2.17;;;;;;;;;;5016167;28;20412;-77
2023/08/10 13:40:53;;;;;;;2.90;2.20;;;;;;;;;;5036028;28;20432;-76
2023/08/10 13:43:19;;;;;;;2.50;1.90;;;;;;;;;;5036678;28;20511;-76
2023/08/10 13:45:45;;;;;;;4.38;2.33;;;;;;;;;;5055797;28;20400;-76
2023/08/10 13:48:11;;;;;;;2.63;2.22;;;;;;;;;;5047523;28;20420;-77
2023/08/10 13:50:37;;;;;;;3.53;2.57;;;;;;;;;;5054097;28;20423;-76
2023/08/10 13:53:03;;;;;;;3.90;2.30;;;;;;;;;;5041090;28;20461;-77
2023/08/10 13:55:30;;;;;;;5.40;2.55;;;;;;;;;;5037948;28;20408;-76
2023/08/10 13:57:56;;;;;;;3.30;2.38;;;;;;;;;;5054904;28;20404;-77
2023/08/10 14:00:22;;;;;;;5.67;2.30;;;;;;;;;;5036521;28;20438;-78
2023/08/10 14:02:48;;;;;;;2.83;2.35;;;;;;;;;;5037803;28;20426;-77
2023/08/10 14:05:14;;;;;;;3.90;2.30;;;;;;;;;;5020254;28;20491;-77
2023/08/10 14:07:40;;;;;;;4.18;2.25;;;;;;;;;;5038011;28;20420;-77
2023/08/10 14:10:06;;;;;;;3.97;2.45;;;;;;;;;;5037663;28;20454;-77
2023/08/10 14:12:32;;;;;;;3.95;2.35;;;;;;;;;;5056215;28;20184;-77
2023/08/10 14:14:59;;;;;;;3.90;2.47;;;;;;;;;;5021926;28;20414;-78
2023/08/10 14:17:25;;;;;;;3.45;2.25;;;;;;;;;;5021264;28;20408;-77
2023/08/10 14:19:51;;;;;;;4.27;2.20;;;;;;;;;;5037655;28;20508;-77
2023/08/10 14:22:17;;;;;;;4.70;2.30;;;;;;;;;;5020672;28;20491;-77
2023/08/10 14:24:43;;;;;;;4.43;2.30;;;;;;;;;;5037346;28;20436;-77
2023/08/10 14:27:09;;;;;;;4.57;2.30;;;;;;;;;;5053981;28;20414;-77
2023/08/10 14:29:35;;;;;;;3.60;2.40;;;;;;;;;;5037390;28;20408;-77
2023/08/10 14:32:01;;;;;;;4.10;2.25;;;;;;;;;;5055002;28;20503;-77
2023/08/10 14:34:27;;;;;;;4.15;2.50;;;;;;;;;;5054936;28;20408;-77
2023/08/10 14:36:53;;;;;;;3.75;2.30;;;;;;;;;;5055120;28;20470;-77
2023/08/10 14:39:19;;;;;;;7.13;2.40;;;;;;;;;;5070243;28;20820;-77